KELD

South Arkansas Regional at Goodwin Field Airport

El Dorado, Arkansas, USA
METAR KELD 231453Z AUTO 06004KT 10SM CLR 26/22 A3010 RMK AO2 SLP189 T02610217 51013
Observed Flight Rules
May-23 @ 14:53 UTC (17 minutes ago) Visual Flight Rules
Wind Visibility Clouds
60° at 4 knots 10 miles
  • Clear skies
Temperatures Readings
Current 26°C / 79°F
Dewpoint 22°C / 72°F
Humidity 79%
Altimeter 30.1" Hg
Pressure 1018.9 hPa
Elevation 81
METAR KELD 231453Z AUTO 06004KT 10SM CLR 26/22 A3010 RMK AO2 SLP189 T02610217 51013
Observed Flight Rules
May-23 @ 14:53 UTC
(17 minutes ago)
VFR
Wind Visibility
60° at 4 knots 10 miles
Clouds
  • Clear skies
Temperature Dewpoint
26°C / 79°F 22°C / 72°F
Humidity Altimeter Pressure
79% 30.1" Hg 1018.9 hPa